Time;durP1;ratioP1;P1;durP2;ratioP2;P2;SDS_P1;SDS_P2;PMS_P1;PMS_P2;Temp;Humidity;BMP_temperature;BMP_pressure;BME280_temperature;BME280_humidity;BME280_pressure;Samples;Min_cycle;Max_cycle;Signal;HPM_P1;HPM_P2
2023/05/08 00:02:19;;;;;;;26.65;20.08;;;12.30;99.90;;;;;;5051972;28;20053;-66
2023/05/08 00:04:45;;;;;;;29.55;21.35;;;12.30;99.90;;;;;;5047610;28;20048;-66
2023/05/08 00:07:10;;;;;;;26.55;19.30;;;12.30;99.90;;;;;;5047732;28;20499;-66
2023/05/08 00:09:36;;;;;;;28.63;20.00;;;12.20;99.90;;;;;;5044610;28;20067;-66
2023/05/08 00:12:02;;;;;;;29.40;20.42;;;12.20;99.90;;;;;;5058380;28;20080;-66
2023/05/08 00:14:27;;;;;;;29.45;20.45;;;12.20;99.90;;;;;;5045181;28;20557;-66
2023/05/08 00:16:53;;;;;;;27.67;20.08;;;12.10;99.90;;;;;;5047357;28;20037;-66
2023/05/08 00:19:18;;;;;;;28.02;20.38;;;12.10;99.90;;;;;;5042171;28;20037;-66
2023/05/08 00:21:44;;;;;;;28.38;20.40;;;12.10;99.90;;;;;;5043517;28;20087;-66
2023/05/08 00:24:10;;;;;;;27.80;20.02;;;12.10;99.90;;;;;;5047242;28;20033;-66
2023/05/08 00:26:35;;;;;;;27.13;20.20;;;12.00;99.90;;;;;;5041902;28;20053;-66
2023/05/08 00:29:01;;;;;;;30.45;21.23;;;12.00;99.90;;;;;;5040518;28;20484;-66
2023/05/08 00:31:26;;;;;;;31.40;21.42;;;11.90;99.90;;;;;;5044144;28;20163;-67
2023/05/08 00:33:52;;;;;;;33.45;21.08;;;11.90;99.90;;;;;;5044314;28;20115;-66
2023/05/08 00:36:17;;;;;;;31.13;21.10;;;11.90;99.90;;;;;;5061126;28;20051;-66
2023/05/08 00:38:43;;;;;;;30.48;21.52;;;11.80;99.90;;;;;;5056705;28;20060;-66
2023/05/08 00:41:08;;;;;;;29.50;19.80;;;11.90;99.90;;;;;;5047091;28;20151;-66
2023/05/08 00:43:36;;;;;;;28.38;20.38;;;11.80;99.90;;;;;;5047952;28;20098;-66
2023/05/08 00:46:02;;;;;;;30.15;21.35;;;11.80;99.90;;;;;;5047447;28;20482;-66
2023/05/08 00:48:31;;;;;;;29.55;19.75;;;11.70;99.90;;;;;;5043897;28;20493;-66
2023/05/08 00:50:57;;;;;;;33.50;20.60;;;11.70;99.90;;;;;;5061167;28;20049;-66
2023/05/08 00:53:25;;;;;;;28.95;20.27;;;11.70;99.90;;;;;;5044221;28;20048;-66
2023/05/08 00:55:51;;;;;;;31.70;20.45;;;11.60;99.90;;;;;;5044142;28;20049;-66
2023/05/08 00:58:21;;;;;;;29.25;20.70;;;11.60;99.90;;;;;;5057054;28;20526;-66
2023/05/08 01:00:49;;;;;;;31.35;20.92;;;11.60;99.90;;;;;;5041559;28;20048;-66
2023/05/08 01:03:15;;;;;;;32.22;21.48;;;11.60;99.90;;;;;;5042651;28;20399;-66
2023/05/08 01:05:40;;;;;;;30.95;20.83;;;11.60;99.90;;;;;;5062662;28;20036;-66
2023/05/08 01:08:06;;;;;;;31.50;22.13;;;11.60;99.90;;;;;;5048823;28;20048;-65
2023/05/08 01:10:56;;;;;;;30.42;21.65;;;11.60;99.90;;;;;;5065462;28;20033;-66
2023/05/08 01:13:50;;;;;;;33.10;21.45;;;11.60;99.90;;;;;;5068620;28;20128;-65
2023/05/08 01:16:38;;;;;;;33.17;22.85;;;11.60;99.90;;;;;;5049392;28;20060;-65
2023/05/08 01:19:10;;;;;;;35.03;22.90;;;11.60;99.90;;;;;;5007149;28;20045;-66
2023/05/08 01:21:49;;;;;;;33.35;22.20;;;11.60;99.90;;;;;;5062011;28;20598;-66
2023/05/08 01:28:00;;;;;;;33.58;22.58;;;11.60;99.90;;;;;;5051269;28;20458;-65
2023/05/08 01:31:03;;;;;;;31.73;21.80;;;11.60;99.90;;;;;;5062625;28;20673;-65
2023/05/08 01:33:48;;;;;;;31.35;21.55;;;11.50;99.90;;;;;;5057627;28;20037;-66
2023/05/08 01:36:23;;;;;;;31.20;21.65;;;11.50;99.90;;;;;;5049836;28;20140;-65
2023/05/08 01:39:00;;;;;;;30.77;21.67;;;11.50;99.90;;;;;;5046188;28;20033;-66
2023/05/08 01:41:28;;;;;;;31.48;21.70;;;11.50;99.90;;;;;;5050938;28;20273;-66
2023/05/08 01:44:15;;;;;;;32.60;21.33;;;11.40;99.90;;;;;;5055832;28;20040;-66
2023/05/08 01:46:45;;;;;;;33.97;22.55;;;11.40;99.90;;;;;;5057356;28;20045;-66
2023/05/08 01:49:18;;;;;;;32.50;21.50;;;11.30;99.90;;;;;;5062564;28;20073;-66
2023/05/08 01:51:47;;;;;;;32.47;21.50;;;11.30;99.90;;;;;;5058223;28;20083;-65
2023/05/08 01:54:21;;;;;;;33.38;22.35;;;11.20;99.90;;;;;;5061645;28;20159;-66
2023/05/08 01:56:49;;;;;;;32.97;22.90;;;11.20;99.90;;;;;;5070462;28;20037;-66
2023/05/08 01:59:18;;;;;;;34.03;22.85;;;11.10;99.90;;;;;;5050761;28;20116;-66
2023/05/08 02:01:45;;;;;;;34.83;22.98;;;11.10;99.90;;;;;;5050947;28;20051;-65
2023/05/08 02:04:13;;;;;;;36.40;22.92;;;11.10;99.90;;;;;;5059608;28;20060;-66
2023/05/08 02:06:40;;;;;;;36.30;22.50;;;11.00;99.90;;;;;;5059269;28;20044;-66
2023/05/08 02:09:08;;;;;;;36.53;22.02;;;11.00;99.90;;;;;;5057107;28;20044;-66
2023/05/08 02:11:36;;;;;;;33.90;22.98;;;10.90;99.90;;;;;;5039316;28;20060;-66
2023/05/08 02:14:04;;;;;;;33.45;22.42;;;10.90;99.90;;;;;;5049034;28;20131;-66
2023/05/08 02:16:31;;;;;;;35.47;22.90;;;10.80;99.90;;;;;;5041558;28;20367;-66
2023/05/08 02:19:00;;;;;;;32.63;21.98;;;10.70;99.90;;;;;;5046009;28;20218;-66
2023/05/08 02:21:26;;;;;;;31.65;21.48;;;10.70;99.90;;;;;;5061510;28;20415;-66
2023/05/08 02:23:54;;;;;;;33.60;22.40;;;10.70;99.90;;;;;;5049842;28;20025;-66
2023/05/08 02:26:22;;;;;;;35.15;22.75;;;10.60;99.90;;;;;;5055565;28;20557;-66
2023/05/08 02:28:49;;;;;;;34.00;22.27;;;10.60;99.90;;;;;;5059186;28;20406;-66
2023/05/08 02:31:16;;;;;;;32.70;22.35;;;10.60;99.90;;;;;;5048676;28;20636;-66
2023/05/08 02:33:43;;;;;;;31.33;21.42;;;10.60;99.90;;;;;;5046039;28;20125;-66
2023/05/08 02:36:12;;;;;;;34.05;21.42;;;10.60;99.90;;;;;;5043375;28;20484;-66
2023/05/08 02:38:40;;;;;;;37.30;22.98;;;10.60;99.90;;;;;;5044425;28;20395;-66
2023/05/08 02:41:08;;;;;;;37.22;23.30;;;10.60;99.90;;;;;;5031476;28;20131;-66
2023/05/08 02:43:34;;;;;;;36.47;23.83;;;10.60;99.90;;;;;;5043748;28;20115;-66
2023/05/08 02:45:59;;;;;;;34.60;22.63;;;10.60;99.90;;;;;;5043559;28;20460;-66
2023/05/08 02:48:35;;;;;;;35.90;23.15;;;10.60;99.90;;;;;;5042616;28;20327;-66
2023/05/08 02:51:24;;;;;;;36.10;23.20;;;10.60;99.90;;;;;;5046958;28;20450;-66
2023/05/08 02:53:57;;;;;;;37.50;22.88;;;10.60;99.90;;;;;;5053857;28;20101;-67
2023/05/08 02:57:00;;;;;;;31.08;20.90;;;10.60;99.90;;;;;;5064499;28;20538;-67
2023/05/08 02:59:44;;;;;;;35.25;21.08;;;10.60;99.90;;;;;;5052439;28;20071;-66
2023/05/08 03:02:34;;;;;;;32.17;21.13;;;10.50;99.90;;;;;;5042135;28;20451;-66
2023/05/08 03:05:06;;;;;;;32.72;21.13;;;10.50;99.90;;;;;;5046139;28;20041;-66
2023/05/08 03:07:39;;;;;;;33.75;22.08;;;10.50;99.90;;;;;;5042972;28;20049;-66
2023/05/08 03:10:09;;;;;;;30.20;20.90;;;10.50;99.90;;;;;;5043119;28;20048;-66
2023/05/08 03:12:39;;;;;;;32.33;21.23;;;10.60;99.90;;;;;;5038914;28;20380;-66
2023/05/08 03:15:07;;;;;;;31.90;22.00;;;10.60;99.90;;;;;;5043689;28;20044;-66
2023/05/08 03:17:35;;;;;;;32.92;21.15;;;10.60;99.90;;;;;;5041784;28;20074;-65
2023/05/08 03:20:06;;;;;;;34.38;22.58;;;10.60;99.90;;;;;;5041706;28;20097;-66
2023/05/08 03:22:35;;;;;;;35.47;22.27;;;10.60;99.90;;;;;;5038240;28;20060;-66
2023/05/08 03:25:03;;;;;;;29.60;21.05;;;10.60;99.90;;;;;;5043700;28;20057;-66
2023/05/08 03:27:31;;;;;;;30.98;21.05;;;10.60;99.90;;;;;;5040489;28;20098;-66
2023/05/08 03:29:58;;;;;;;33.97;22.38;;;10.50;99.90;;;;;;5043583;28;20488;-66
2023/05/08 03:32:26;;;;;;;36.08;22.10;;;10.50;99.90;;;;;;5042825;28;20407;-66
2023/05/08 03:34:52;;;;;;;33.45;21.60;;;10.50;99.90;;;;;;5039488;28;20516;-66
2023/05/08 03:37:18;;;;;;;34.88;21.55;;;10.40;99.90;;;;;;5045559;28;20185;-66
2023/05/08 03:39:44;;;;;;;33.70;21.80;;;10.40;99.90;;;;;;5045435;28;20045;-66
2023/05/08 03:42:20;;;;;;;32.08;21.23;;;10.40;99.90;;;;;;5045130;28;20053;-66
2023/05/08 03:44:48;;;;;;;31.55;21.17;;;10.30;99.90;;;;;;5047594;28;20063;-66
2023/05/08 03:47:19;;;;;;;33.40;21.85;;;10.30;99.90;;;;;;5043897;28;20116;-66
2023/05/08 03:49:46;;;;;;;34.85;21.95;;;10.30;99.90;;;;;;5045284;28;20126;-66
2023/05/08 03:52:15;;;;;;;31.65;20.35;;;10.20;99.90;;;;;;5045765;28;20404;-66
2023/05/08 03:54:41;;;;;;;32.70;21.83;;;10.20;99.90;;;;;;5047957;28;20098;-66
2023/05/08 03:57:07;;;;;;;31.23;21.33;;;10.10;99.90;;;;;;5045460;28;20045;-66
2023/05/08 04:00:01;;;;;;;37.33;22.88;;;10.10;99.90;;;;;;5042437;28;20080;-66
2023/05/08 04:02:56;;;;;;;32.30;21.30;;;10.10;99.90;;;;;;5042151;28;20491;-66
2023/05/08 04:05:29;;;;;;;33.30;21.27;;;10.10;99.90;;;;;;5044746;28;20051;-66
2023/05/08 04:08:07;;;;;;;31.55;20.52;;;10.10;99.90;;;;;;5045375;28;20045;-66
2023/05/08 04:10:42;;;;;;;31.35;20.48;;;10.10;99.90;;;;;;5041212;28;20384;-66
2023/05/08 04:13:12;;;;;;;33.00;21.63;;;10.00;99.90;;;;;;5043343;28;20040;-65
2023/05/08 04:15:47;;;;;;;32.22;21.25;;;10.00;99.90;;;;;;5047406;28;20041;-65
2023/05/08 04:18:17;;;;;;;31.20;20.77;;;10.00;99.90;;;;;;5048567;28;20108;-65
2023/05/08 04:20:46;;;;;;;33.22;21.65;;;9.90;99.90;;;;;;5046195;28;20132;-66
2023/05/08 04:23:18;;;;;;;31.67;21.58;;;9.90;99.90;;;;;;5043687;28;20103;-66
2023/05/08 04:25:46;;;;;;;30.88;20.55;;;9.90;99.90;;;;;;5048148;28;20095;-66
2023/05/08 04:28:11;;;;;;;34.70;21.65;;;9.90;99.90;;;;;;5042106;28;20361;-66
2023/05/08 04:30:38;;;;;;;31.88;20.40;;;9.90;99.90;;;;;;5045214;28;20048;-66
2023/05/08 04:33:05;;;;;;;29.33;19.85;;;9.90;99.90;;;;;;5044990;28;20032;-65
2023/05/08 04:35:32;;;;;;;31.52;20.13;;;10.00;99.90;;;;;;5043707;28;20051;-65
2023/05/08 04:37:58;;;;;;;31.77;20.38;;;10.00;99.90;;;;;;5042538;28;21101;-66
2023/05/08 04:40:24;;;;;;;29.42;19.65;;;10.00;99.90;;;;;;5042074;28;20442;-65
2023/05/08 04:42:49;;;;;;;29.40;19.85;;;10.00;99.90;;;;;;5046815;28;20068;-67
2023/05/08 04:45:15;;;;;;;31.75;21.20;;;10.00;99.90;;;;;;5048900;28;20056;-66
2023/05/08 04:47:41;;;;;;;30.88;20.00;;;10.10;99.90;;;;;;5043500;28;20056;-66
2023/05/08 04:50:07;;;;;;;29.58;19.80;;;10.10;99.90;;;;;;5062480;28;20039;-66
2023/05/08 04:52:32;;;;;;;30.05;20.58;;;10.10;99.90;;;;;;5046246;28;20863;-66
2023/05/08 04:54:58;;;;;;;29.75;19.63;;;10.20;99.90;;;;;;5046118;28;20120;-66
2023/05/08 04:57:23;;;;;;;31.75;20.90;;;10.20;99.90;;;;;;5049089;28;20507;-66
2023/05/08 04:59:49;;;;;;;28.63;19.35;;;10.30;99.90;;;;;;5048932;28;20482;-66
2023/05/08 05:02:16;;;;;;;30.40;19.85;;;10.30;99.90;;;;;;5050317;28;20091;-66
2023/05/08 05:04:42;;;;;;;29.17;19.27;;;10.40;99.90;;;;;;5049671;28;20036;-66
2023/05/08 05:07:07;;;;;;;31.60;19.85;;;10.40;99.90;;;;;;5049109;28;20041;-66
2023/05/08 05:09:36;;;;;;;30.48;20.60;;;10.50;99.90;;;;;;5064567;28;20033;-66
2023/05/08 05:12:07;;;;;;;30.05;19.35;;;10.50;99.90;;;;;;5048454;28;20391;-66
2023/05/08 05:14:34;;;;;;;28.10;19.58;;;10.60;99.90;;;;;;5046513;28;20125;-67
2023/05/08 05:16:59;;;;;;;29.98;19.67;;;10.60;99.90;;;;;;5048675;28;20081;-66
2023/05/08 05:19:25;;;;;;;28.75;19.60;;;10.70;99.90;;;;;;5061864;28;20781;-66
2023/05/08 05:21:51;;;;;;;29.00;19.90;;;10.80;99.90;;;;;;5064116;28;20128;-66
2023/05/08 05:24:17;;;;;;;28.25;19.63;;;10.80;99.90;;;;;;5049659;28;20171;-66
2023/05/08 05:26:42;;;;;;;27.65;18.73;;;10.90;99.90;;;;;;5046673;28;20128;-66
2023/05/08 05:29:08;;;;;;;30.90;20.10;;;11.00;99.90;;;;;;5062315;28;20472;-66
2023/05/08 05:31:33;;;;;;;27.00;18.85;;;11.10;99.90;;;;;;5044856;28;20084;-67
2023/05/08 05:33:59;;;;;;;29.27;20.35;;;11.20;99.90;;;;;;5043039;28;20112;-66
2023/05/08 05:36:25;;;;;;;28.45;19.70;;;11.30;99.90;;;;;;5045854;28;20120;-67
2023/05/08 05:38:50;;;;;;;30.45;20.25;;;11.30;99.90;;;;;;5046028;28;20408;-66
2023/05/08 05:41:16;;;;;;;27.83;18.83;;;11.40;99.90;;;;;;5045151;28;20068;-66
2023/05/08 05:43:41;;;;;;;26.77;18.15;;;11.50;99.90;;;;;;5046287;28;20442;-66
2023/05/08 05:46:08;;;;;;;28.98;18.98;;;11.60;99.90;;;;;;5048041;28;20548;-67
2023/05/08 05:48:34;;;;;;;27.60;19.05;;;11.70;99.90;;;;;;5047023;28;20111;-66
2023/05/08 05:51:00;;;;;;;27.58;18.27;;;11.80;99.90;;;;;;5049044;28;20158;-67
2023/05/08 05:53:25;;;;;;;28.40;18.70;;;11.90;99.90;;;;;;5046844;28;20045;-66
2023/05/08 05:55:51;;;;;;;28.77;18.98;;;12.00;99.90;;;;;;5047975;28;20087;-67
2023/05/08 05:58:17;;;;;;;25.48;17.88;;;12.10;99.90;;;;;;5044655;28;21153;-67
2023/05/08 06:00:43;;;;;;;26.25;18.00;;;12.20;99.90;;;;;;5047463;28;20055;-67
2023/05/08 06:03:12;;;;;;;26.90;18.23;;;12.20;99.90;;;;;;5043035;28;20173;-67
2023/05/08 06:05:39;;;;;;;24.33;17.65;;;12.30;99.90;;;;;;5041578;28;20052;-67
2023/05/08 06:08:05;;;;;;;25.27;17.67;;;12.40;99.90;;;;;;5043726;28;20044;-66
2023/05/08 06:10:31;;;;;;;23.52;17.55;;;12.60;99.90;;;;;;5041748;28;20125;-67
2023/05/08 06:12:56;;;;;;;25.13;17.60;;;12.70;99.90;;;;;;5041956;28;20120;-67
2023/05/08 06:15:22;;;;;;;24.10;17.85;;;12.90;99.90;;;;;;5058609;28;20060;-67
2023/05/08 06:17:48;;;;;;;23.00;17.83;;;12.90;99.90;;;;;;5044087;28;20037;-67
2023/05/08 06:20:13;;;;;;;23.60;17.20;;;13.00;99.90;;;;;;5045030;28;20036;-68
2023/05/08 06:22:40;;;;;;;27.98;17.15;;;13.10;99.90;;;;;;5043938;28;20036;-67
2023/05/08 06:25:07;;;;;;;24.00;17.85;;;13.10;99.90;;;;;;5046410;28;20090;-67
2023/05/08 06:27:33;;;;;;;25.30;17.75;;;13.20;99.90;;;;;;5045209;28;20044;-67
2023/05/08 06:29:59;;;;;;;23.50;17.27;;;13.20;99.90;;;;;;5059734;28;20446;-67
2023/05/08 06:32:25;;;;;;;25.15;18.13;;;13.30;99.90;;;;;;5046836;28;20041;-67
2023/05/08 06:34:50;;;;;;;25.88;18.75;;;13.30;99.90;;;;;;5049831;28;20408;-67
2023/05/08 06:37:16;;;;;;;22.40;17.00;;;13.40;99.90;;;;;;5048721;28;20127;-68
2023/05/08 06:39:42;;;;;;;25.98;18.40;;;13.40;99.90;;;;;;5043454;28;20041;-67
2023/05/08 06:42:07;;;;;;;24.60;18.35;;;13.50;99.90;;;;;;5047216;28;20563;-66
2023/05/08 06:44:33;;;;;;;24.35;18.30;;;13.50;99.90;;;;;;5063272;28;20056;-67
2023/05/08 06:46:58;;;;;;;22.13;17.23;;;13.50;99.90;;;;;;5047264;28;20035;-67
2023/05/08 06:49:25;;;;;;;22.85;17.60;;;13.60;99.90;;;;;;5048617;28;20123;-67
2023/05/08 06:51:50;;;;;;;22.73;16.98;;;13.60;99.90;;;;;;5063586;28;20051;-66
2023/05/08 06:54:16;;;;;;;24.65;18.25;;;13.70;99.90;;;;;;5046723;28;20653;-67
2023/05/08 06:56:42;;;;;;;23.92;17.92;;;13.80;99.90;;;;;;5050534;28;20094;-67
2023/05/08 06:59:07;;;;;;;25.15;18.98;;;13.90;99.90;;;;;;5043115;28;20492;-67
2023/05/08 07:01:33;;;;;;;24.00;17.85;;;13.90;99.90;;;;;;5032380;28;20488;-66
2023/05/08 07:04:00;;;;;;;24.33;17.67;;;14.10;99.90;;;;;;5048694;28;20090;-67
2023/05/08 07:06:26;;;;;;;24.48;17.58;;;14.10;99.90;;;;;;5049877;28;20045;-67
2023/05/08 07:08:52;;;;;;;22.55;17.05;;;14.20;99.90;;;;;;5054752;28;20040;-66
2023/05/08 07:11:17;;;;;;;21.52;17.05;;;14.30;99.90;;;;;;5057779;28;20052;-67
2023/05/08 07:13:44;;;;;;;22.33;16.85;;;14.40;99.90;;;;;;5025865;28;20055;-68
2023/05/08 07:16:10;;;;;;;23.92;17.38;;;14.50;99.90;;;;;;5049281;28;20043;-68
2023/05/08 07:18:36;;;;;;;22.45;17.27;;;14.60;99.90;;;;;;5041031;28;20045;-67
2023/05/08 07:21:02;;;;;;;22.75;18.15;;;14.60;99.90;;;;;;5052514;28;20033;-67
2023/05/08 07:23:28;;;;;;;22.75;17.42;;;14.70;99.90;;;;;;5049166;28;20126;-67
2023/05/08 07:25:53;;;;;;;24.27;17.73;;;14.80;99.90;;;;;;5056065;28;20044;-67
2023/05/08 07:28:19;;;;;;;24.65;17.70;;;14.80;99.90;;;;;;5049205;28;20569;-67
2023/05/08 07:30:45;;;;;;;23.77;17.52;;;14.90;99.90;;;;;;5046816;28;20396;-66
2023/05/08 07:33:16;;;;;;;23.10;17.20;;;15.00;99.90;;;;;;5048744;28;20033;-67
2023/05/08 07:35:42;;;;;;;22.90;16.92;;;15.10;99.90;;;;;;5054401;28;20040;-67
2023/05/08 07:38:07;;;;;;;20.75;16.65;;;15.10;99.90;;;;;;5049681;28;20041;-68
2023/05/08 07:40:33;;;;;;;21.80;17.67;;;15.20;99.90;;;;;;5055188;28;20036;-67
2023/05/08 07:42:59;;;;;;;23.52;17.25;;;15.20;99.90;;;;;;5059442;28;20476;-67
2023/05/08 07:45:25;;;;;;;21.05;16.92;;;15.20;99.90;;;;;;5051705;28;20048;-66
2023/05/08 07:47:56;;;;;;;21.17;16.38;;;15.30;99.90;;;;;;5048090;28;20078;-67
2023/05/08 07:50:28;;;;;;;20.40;16.60;;;15.40;99.90;;;;;;5052722;28;20033;-67
2023/05/08 07:52:56;;;;;;;24.48;17.30;;;15.50;99.90;;;;;;5049382;28;20068;-67
2023/05/08 07:55:21;;;;;;;21.20;16.95;;;15.70;99.90;;;;;;5047343;28;20472;-66
2023/05/08 07:58:31;;;;;;;21.55;16.88;;;15.80;99.90;;;;;;5063802;28;20048;-66
2023/05/08 08:00:56;;;;;;;22.08;17.45;;;15.90;99.90;;;;;;5047575;28;20051;-67
2023/05/08 08:03:22;;;;;;;20.85;16.60;;;16.00;99.90;;;;;;5048947;28;20037;-67
2023/05/08 08:05:47;;;;;;;20.00;16.42;;;16.10;99.90;;;;;;5046376;28;20491;-67
2023/05/08 08:08:13;;;;;;;22.50;17.15;;;16.20;99.90;;;;;;5048082;28;20041;-66
2023/05/08 08:10:38;;;;;;;22.75;17.50;;;16.30;99.90;;;;;;5046573;28;20079;-66
2023/05/08 08:13:16;;;;;;;20.98;16.92;;;16.50;99.90;;;;;;5051401;28;20458;-66
2023/05/08 08:15:42;;;;;;;23.55;17.13;;;16.50;99.90;;;;;;5050845;28;20140;-66
2023/05/08 08:18:08;;;;;;;22.48;16.52;;;16.60;99.90;;;;;;5050106;28;20555;-67
2023/05/08 08:20:33;;;;;;;21.63;16.35;;;16.60;99.90;;;;;;5050565;28;20122;-66
2023/05/08 08:22:59;;;;;;;20.95;17.08;;;16.60;99.90;;;;;;5043871;28;20043;-66
2023/05/08 08:28:34;;;;;;;20.95;17.40;;;16.80;99.90;;;;;;5051836;28;20033;-66
2023/05/08 08:30:59;;;;;;;22.42;16.65;;;16.70;99.90;;;;;;5055561;28;20498;-67
2023/05/08 08:33:29;;;;;;;22.48;17.23;;;16.70;99.90;;;;;;5054519;28;20033;-67
2023/05/08 08:35:55;;;;;;;21.20;17.20;;;16.80;99.90;;;;;;5056010;28;20056;-67
2023/05/08 08:38:22;;;;;;;23.80;17.85;;;16.80;99.90;;;;;;5051834;28;20041;-68
2023/05/08 08:44:44;;;;;;;23.08;18.77;;;17.00;99.90;;;;;;5046299;28;20522;-68
2023/05/08 08:47:13;;;;;;;21.92;18.15;;;17.00;99.90;;;;;;5050165;28;20055;-67
2023/05/08 08:49:59;;;;;;;22.73;18.55;;;17.00;99.90;;;;;;5051442;28;21436;-67
2023/05/08 08:53:05;;;;;;;23.20;18.15;;;17.10;99.90;;;;;;5048408;28;20112;-67
2023/05/08 08:55:54;;;;;;;23.35;18.92;;;17.10;99.90;;;;;;5059440;28;20044;-67
2023/05/08 08:58:45;;;;;;;25.33;19.70;;;17.30;99.90;;;;;;5069772;28;20063;-68
2023/05/08 09:01:15;;;;;;;24.10;18.45;;;17.40;99.90;;;;;;5054703;28;20476;-67
2023/05/08 09:04:00;;;;;;;23.02;18.83;;;17.50;99.90;;;;;;5051306;28;20071;-67
2023/05/08 09:06:27;;;;;;;23.52;19.00;;;17.50;99.90;;;;;;5048116;28;20475;-68
2023/05/08 09:08:55;;;;;;;24.10;18.50;;;17.60;99.90;;;;;;5052214;28;20040;-67
2023/05/08 09:11:21;;;;;;;23.77;18.73;;;17.60;99.90;;;;;;5064713;28;20041;-68
2023/05/08 09:13:47;;;;;;;21.70;18.23;;;17.90;99.90;;;;;;5046839;28;20114;-67
2023/05/08 09:16:12;;;;;;;24.58;18.30;;;18.10;99.90;;;;;;5049350;28;20041;-67
2023/05/08 09:18:38;;;;;;;22.83;17.98;;;18.20;99.90;;;;;;5042721;28;20772;-68
2023/05/08 09:21:05;;;;;;;21.92;17.98;;;18.40;99.90;;;;;;5067385;28;20049;-67
2023/05/08 09:23:31;;;;;;;22.75;19.08;;;18.50;99.90;;;;;;5055291;28;20501;-67
2023/05/08 09:25:56;;;;;;;24.80;19.45;;;18.60;99.90;;;;;;5036458;28;20124;-68
2023/05/08 09:28:23;;;;;;;25.30;18.80;;;18.60;99.90;;;;;;5056330;28;20033;-66
2023/05/08 09:30:55;;;;;;;23.25;18.02;;;18.60;99.90;;;;;;5052455;28;20097;-67
2023/05/08 09:33:25;;;;;;;22.00;18.85;;;18.60;99.90;;;;;;5061450;28;20041;-66
2023/05/08 09:35:51;;;;;;;22.13;17.92;;;18.60;99.90;;;;;;5051708;28;20036;-67
2023/05/08 09:38:42;;;;;;;26.80;20.13;;;18.70;99.90;;;;;;5038698;28;20052;-67
2023/05/08 09:41:14;;;;;;;24.10;19.33;;;18.80;99.90;;;;;;5046707;28;20045;-69
2023/05/08 09:43:41;;;;;;;21.83;17.80;;;18.90;99.90;;;;;;5054021;28;20064;-66
2023/05/08 09:50:00;;;;;;;25.55;19.77;;;19.10;99.90;;;;;;5053136;28;20396;-66
2023/05/08 09:52:27;;;;;;;24.77;20.50;;;19.00;99.90;;;;;;5053581;28;20041;-67
2023/05/08 09:55:01;;;;;;;28.25;20.05;;;19.00;99.90;;;;;;5054245;28;20066;-68
2023/05/08 10:01:35;;;;;;;26.15;21.05;;;19.70;99.90;;;;;;5053457;28;20449;-66
2023/05/08 10:07:42;;;;;;;24.70;20.10;;;20.10;99.90;;;;;;5061497;28;20107;-68
2023/05/08 10:10:08;;;;;;;24.20;18.80;;;20.50;99.90;;;;;;5063202;28;20144;-68
2023/05/08 10:12:36;;;;;;;23.65;20.13;;;20.70;99.90;;;;;;5049420;28;20380;-68
2023/05/08 10:15:02;;;;;;;24.77;20.40;;;20.80;99.90;;;;;;5054548;28;20063;-68
2023/05/08 10:17:41;;;;;;;25.88;20.63;;;20.90;99.90;;;;;;5062792;28;20105;-67
2023/05/08 10:20:08;;;;;;;24.38;20.60;;;21.10;99.90;;;;;;5062480;28;20499;-68
2023/05/08 10:22:39;;;;;;;25.83;21.05;;;21.30;99.90;;;;;;5057856;28;20083;-69
2023/05/08 10:25:09;;;;;;;24.83;20.85;;;21.40;99.90;;;;;;5050867;28;20041;-70
2023/05/08 10:27:54;;;;;;;24.17;19.58;;;21.40;99.90;;;;;;5045867;28;20091;-67
2023/05/08 10:30:36;;;;;;;23.95;20.30;;;21.50;99.90;;;;;;5052039;28;20119;-68
2023/05/08 10:33:02;;;;;;;;;;;21.40;99.90;;;;;;5054876;28;20051;-69
2023/05/08 10:35:27;;;;;;;26.00;20.48;;;21.40;99.90;;;;;;5057944;28;19916;-68
2023/05/08 10:37:55;;;;;;;23.70;18.85;;;21.40;99.90;;;;;;5033794;28;20120;-67
2023/05/08 10:40:21;;;;;;;24.65;19.42;;;21.50;99.90;;;;;;5051947;28;20059;-69
2023/05/08 10:42:48;;;;;;;23.70;19.77;;;21.50;99.90;;;;;;5052226;28;20041;-68
2023/05/08 10:45:14;;;;;;;25.65;19.92;;;21.50;99.90;;;;;;5051044;28;20488;-69
2023/05/08 10:48:24;;;;;;;24.92;19.52;;;21.40;99.90;;;;;;5051859;28;20044;-69
2023/05/08 10:51:31;;;;;;;24.98;19.60;;;21.50;99.90;;;;;;5072308;28;20072;-68
2023/05/08 10:54:12;;;;;;;22.30;18.55;;;21.70;99.90;;;;;;5046090;28;20101;-68
2023/05/08 10:56:38;;;;;;;22.42;19.40;;;21.90;99.90;;;;;;5079665;28;20036;-68
2023/05/08 10:59:04;;;;;;;22.48;19.10;;;22.10;99.90;;;;;;5061283;28;20045;-68
2023/05/08 11:01:30;;;;;;;24.13;19.85;;;22.20;99.90;;;;;;5050560;28;20041;-68
2023/05/08 11:03:55;;;;;;;24.40;20.38;;;22.30;99.90;;;;;;5033939;28;20053;-68
2023/05/08 11:06:44;;;;;;;22.35;18.85;;;22.30;99.90;;;;;;5048134;28;20056;-69
2023/05/08 11:09:27;;;;;;;25.30;20.70;;;22.40;99.90;;;;;;5033076;28;20044;-68
2023/05/08 11:12:30;;;;;;;25.17;21.35;;;22.00;99.90;;;;;;5040224;28;20132;-68
2023/05/08 11:15:05;;;;;;;24.35;20.58;;;21.80;99.90;;;;;;5004056;28;20069;-69
2023/05/08 11:17:32;;;;;;;24.58;19.25;;;21.90;99.90;;;;;;5041979;28;20400;-67
2023/05/08 11:20:04;;;;;;;25.60;21.23;;;21.70;99.90;;;;;;5052876;28;20037;-68
2023/05/08 11:22:30;;;;;;;24.07;20.00;;;21.40;99.90;;;;;;5053786;28;20037;-67
2023/05/08 11:25:07;;;;;;;24.50;19.70;;;21.20;99.90;;;;;;5053101;28;20291;-67
2023/05/08 11:28:00;;;;;;;26.08;20.67;;;21.30;99.90;;;;;;5069299;28;20040;-68
2023/05/08 11:30:32;;;;;;;25.88;20.60;;;21.50;99.90;;;;;;5059990;28;20045;-66
2023/05/08 11:33:03;;;;;;;26.42;19.80;;;21.40;99.90;;;;;;5046914;28;20041;-67
2023/05/08 11:35:45;;;;;;;24.52;19.45;;;21.40;99.90;;;;;;5056870;28;20040;-67
2023/05/08 11:38:18;;;;;;;24.77;20.67;;;21.60;99.90;;;;;;5066966;28;20044;-66
2023/05/08 11:40:48;;;;;;;26.45;21.52;;;21.70;99.90;;;;;;5073506;28;20044;-66
2023/05/08 11:43:32;;;;;;;30.55;22.63;;;21.80;99.90;;;;;;5064166;28;20080;-67
2023/05/08 11:46:03;;;;;;;29.42;23.02;;;21.80;99.90;;;;;;5050332;28;20049;-67
2023/05/08 11:48:29;;;;;;;27.92;23.10;;;21.90;99.90;;;;;;5052107;28;20132;-67
2023/05/08 11:50:55;;;;;;;28.98;21.92;;;21.80;99.90;;;;;;5067288;28;20040;-68
2023/05/08 11:53:21;;;;;;;27.08;22.52;;;22.00;99.90;;;;;;5034525;28;20393;-67
2023/05/08 11:55:47;;;;;;;26.33;21.63;;;21.90;99.90;;;;;;5042347;28;20053;-69
2023/05/08 11:58:16;;;;;;;25.75;21.27;;;21.90;99.90;;;;;;5054276;28;20037;-68
2023/05/08 12:00:44;;;;;;;27.98;21.88;;;22.00;99.90;;;;;;5069456;28;20040;-68
2023/05/08 12:03:14;;;;;;;25.70;21.35;;;22.20;99.90;;;;;;5053118;28;20064;-68
2023/05/08 12:05:40;;;;;;;25.98;20.05;;;22.20;99.90;;;;;;5051229;28;20045;-67
2023/05/08 12:08:07;;;;;;;26.05;20.83;;;22.40;99.90;;;;;;5043816;28;20499;-66
2023/05/08 12:10:39;;;;;;;25.05;20.65;;;22.60;99.90;;;;;;5031657;28;20045;-67
2023/05/08 12:13:18;;;;;;;24.42;19.73;;;22.80;99.90;;;;;;5036171;28;20037;-68
2023/05/08 12:15:55;;;;;;;24.10;20.05;;;23.00;99.90;;;;;;5033971;28;20041;-72
2023/05/08 12:18:27;;;;;;;26.95;20.48;;;23.30;99.90;;;;;;5057141;28;20167;-67
2023/05/08 12:20:55;;;;;;;25.40;19.00;;;23.40;99.90;;;;;;5032966;28;20055;-67
2023/05/08 12:23:21;;;;;;;24.55;19.88;;;23.40;99.90;;;;;;5064880;28;20039;-67
2023/05/08 12:25:50;;;;;;;23.88;19.30;;;23.40;99.90;;;;;;5066053;28;20041;-70
2023/05/08 12:28:16;;;;;;;28.00;22.42;;;23.30;99.90;;;;;;5049329;28;20124;-67
2023/05/08 12:30:41;;;;;;;26.33;19.75;;;23.30;99.90;;;;;;5052467;28;20079;-68
2023/05/08 12:37:27;;;;;;;27.25;20.30;;;23.40;99.90;;;;;;5041617;28;20041;-67
2023/05/08 12:39:52;;;;;;;28.98;22.25;;;23.30;99.90;;;;;;5053948;28;20415;-68
2023/05/08 12:42:18;;;;;;;27.35;22.10;;;23.10;99.90;;;;;;5058353;28;20041;-68
2023/05/08 12:44:51;;;;;;;28.48;22.30;;;23.10;99.90;;;;;;5038372;28;20037;-67
2023/05/08 12:47:20;;;;;;;30.77;23.80;;;23.20;99.90;;;;;;5055364;28;20400;-67
2023/05/08 12:49:48;;;;;;;27.67;23.45;;;23.30;99.90;;;;;;5060635;28;20045;-67
2023/05/08 12:52:14;;;;;;;26.52;21.83;;;23.40;99.90;;;;;;5052436;28;20135;-66
2023/05/08 12:54:47;;;;;;;29.98;22.67;;;23.20;99.90;;;;;;5052499;28;20037;-67
2023/05/08 12:57:15;;;;;;;29.23;23.60;;;23.20;99.90;;;;;;5051875;28;20119;-66
2023/05/08 12:59:42;;;;;;;30.70;23.17;;;23.00;99.90;;;;;;5061491;28;20117;-66
2023/05/08 13:02:20;;;;;;;27.63;22.58;;;23.00;99.90;;;;;;5053427;28;20134;-67
2023/05/08 13:04:46;;;;;;;28.17;22.70;;;23.00;99.90;;;;;;5066200;28;20044;-67
2023/05/08 13:10:54;;;;;;;28.05;21.13;;;22.70;99.90;;;;;;5036647;28;20083;-67
2023/05/08 13:13:22;;;;;;;25.85;21.60;;;22.40;99.90;;;;;;5045180;28;20107;-66